Thorco Reef — VRIP4 — position and weather

sailwx.info

Track history (hours):
 
Tides and Currents Weather Stations Pressure Air Temp Water Temp Dewpoint Dewpoint Depression Visibility Wind Speed Wind Dir Waves Ship Positions

Thorco Reef

Last reported at 2017-Sep-18 20:50 UTC. Time now 2017-Sep-22 17:19 UTC.
Position N 49°34' W 004°03'.

Length 161 m; draft 7.1 m.

Type: Ship. MMSI: 477196900.

Date/timePositionNaut miles runAvg speedWind from/ knotsBaromVisibWave heightAir tempDewpointWater temp
2017-Sep-18 20:50N 49°34' W 004°03'514.3
2017-Sep-18 20:30N 49°37' W 003°57'713.9
2017-Sep-18 20:00N 49°40' W 003°48'713.3
2017-Sep-18 19:30N 49°43' W 003°39'612.6
2017-Sep-18 19:00N 49°46' W 003°30'612.0
2017-Sep-18 18:30N 49°49' W 003°22'611.6
2017-Sep-18 18:00N 49°52' W 003°15'611.5
2017-Sep-18 17:30N 49°55' W 003°07'611.5
2017-Sep-18 17:00N 49°58' W 002°59'611.4
2017-Sep-18 16:30N 49°59' W 002°50'612.0
2017-Sep-18 16:01N 50°01' W 002°41'3314.1
2017-Sep-18 13:39N 50°10' W 001°51'216.0
2017-Sep-18 13:30N 50°10' W 001°48'816.4
2017-Sep-18 13:01N 50°13' W 001°36'816.4
2017-Sep-18 12:30N 50°15' W 001°23'3615.3
2017-Sep-18 10:07N 50°25' W 000°28'213.9
2017-Sep-18 10:00N 50°25' W 000°26'713.5
2017-Sep-18 09:30N 50°27' W 000°16'713.0
2017-Sep-18 09:00N 50°29' W 000°06'612.5
2017-Sep-18 08:30N 50°31' E 000°04'612.1
2017-Sep-18 08:00N 50°32' E 000°13'611.8
2017-Sep-18 07:30N 50°34' E 000°22'611.8
2017-Sep-18 07:00N 50°36' E 000°31'612.2
2017-Sep-18 06:30N 50°38' E 000°39'713.1
2017-Sep-18 06:00N 50°42' E 000°48'714.1
2017-Sep-18 05:30N 50°46' E 000°57'714.9
2017-Sep-18 05:00N 50°50' E 001°07'1115.5
2017-Sep-18 04:17N 50°57' E 001°20'416.0
2017-Sep-18 04:01N 51°00' E 001°25'815.2
2017-Sep-18 03:30N 51°06' E 001°34'714.6
2017-Sep-18 03:00N 51°11' E 001°42'713.9
2017-Sep-18 02:30N 51°16' E 001°50'713.3
2017-Sep-18 02:00N 51°22' E 001°56'611.1
2017-Sep-18 01:30N 51°25' E 002°03'612.8
2017-Sep-18 01:00N 51°22' E 002°12'611.9
2017-Sep-18 00:30N 51°21' E 002°22'611.9
2017-Sep-18 00:00N 51°23' E 002°31'611.7
2017-Sep-17 23:30N 51°23' E 002°40'510.8
2017-Sep-17 23:01N 51°22' E 002°49'612.6
2017-Sep-17 22:30N 51°23' E 002°59'612.6
2017-Sep-17 22:00N 51°24' E 003°09'611.8
2017-Sep-17 21:30N 51°25' E 003°18'612.0
2017-Sep-17 21:00N 51°25' E 003°28'510.5
2017-Sep-17 20:30N 51°26' E 003°36'4 8.7
2017-Sep-17 20:01N 51°25' E 003°43'612.2
2017-Sep-17 19:31N 51°21' E 003°50'612.5
2017-Sep-17 19:01N 51°25' E 003°58'4 8.6
2017-Sep-17 18:31N 51°22' E 004°03'611.8
2017-Sep-17 18:00N 51°23' E 004°13'3 6.6
2017-Sep-17 17:30N 51°21' E 004°17'0 0.0
2017-Sep-17 17:00N 51°21' E 004°17'1 1.5
2017-Sep-17 16:30N 51°20' E 004°18'3 6.6
2017-Sep-17 16:00N 51°17' E 004°20'3 5.3
2017-Sep-17 15:30N 51°15' E 004°23'0 0.1
2017-Sep-17 14:58N 51°15' E 004°23'0 0.0
2017-Sep-17 14:28N 51°15' E 004°23'0 0.0
2017-Sep-17 13:58N 51°15' E 004°23'0 0.0
2017-Sep-17 13:28N 51°15' E 004°23'0 0.0
2017-Sep-17 12:58N 51°15' E 004°23'0 0.0
2017-Sep-17 12:28N 51°15' E 004°23'0 0.0
2017-Sep-17 11:58N 51°15' E 004°23'0 0.0
2017-Sep-17 11:28N 51°15' E 004°23'0 0.0
2017-Sep-17 10:58N 51°15' E 004°23'0 0.0
2017-Sep-17 10:28N 51°15' E 004°23'0 0.0
2017-Sep-17 09:58N 51°15' E 004°23'0 0.0
2017-Sep-17 09:28N 51°15' E 004°23'0 0.0
2017-Sep-17 08:58N 51°15' E 004°23'0 0.0
2017-Sep-17 08:28N 51°15' E 004°23'0 0.0
2017-Sep-17 07:58N 51°15' E 004°23'0 0.0
2017-Sep-17 07:28N 51°15' E 004°23'0 0.0
2017-Sep-17 06:58N 51°15' E 004°23'0 0.0
2017-Sep-17 06:28N 51°15' E 004°23'0 0.0
2017-Sep-17 05:58N 51°15' E 004°23'0 0.0
2017-Sep-17 05:28N 51°15' E 004°23'0 0.0
2017-Sep-17 04:58N 51°15' E 004°23'0 0.0
2017-Sep-17 04:28N 51°15' E 004°23'0 0.0
2017-Sep-17 03:58N 51°15' E 004°23'0 0.0
2017-Sep-17 03:28N 51°15' E 004°23'0 0.0
2017-Sep-17 02:58N 51°15' E 004°23'0 0.0
2017-Sep-17 02:28N 51°15' E 004°23'0 0.0
2017-Sep-17 01:58N 51°15' E 004°23'0 0.0
2017-Sep-17 01:28N 51°15' E 004°23'0 0.0
2017-Sep-17 00:58N 51°15' E 004°23'0 0.0
2017-Sep-17 00:28N 51°15' E 004°23'0 0.0
2017-Sep-16 23:58N 51°15' E 004°23'0 0.0
2017-Sep-16 23:28N 51°15' E 004°23'0 0.0
2017-Sep-16 22:58N 51°15' E 004°23'0 0.0
2017-Sep-16 22:28N 51°15' E 004°23'0 0.0
2017-Sep-16 21:58N 51°15' E 004°23'0 0.0
2017-Sep-16 21:28N 51°15' E 004°23'0 0.0
2017-Sep-16 20:58N 51°15' E 004°23'0 0.0
2017-Sep-16 20:28N 51°15' E 004°23'0 0.0
2017-Sep-16 19:58N 51°15' E 004°23'0 0.0
2017-Sep-16 19:28N 51°15' E 004°23'0 0.0
2017-Sep-16 18:58N 51°15' E 004°23'0 0.0
2017-Sep-16 18:28N 51°15' E 004°23'0 0.0
2017-Sep-16 17:58N 51°15' E 004°23'0 0.0
2017-Sep-16 17:28N 51°15' E 004°23'0 0.0
2017-Sep-16 16:58N 51°15' E 004°23'0 0.0
2017-Sep-16 16:28N 51°15' E 004°23'0 0.0
2017-Sep-16 15:58N 51°15' E 004°23'0 0.0
2017-Sep-16 15:28N 51°15' E 004°23'0 0.0
2017-Sep-16 14:58N 51°15' E 004°23'0 0.0
2017-Sep-16 14:25N 51°15' E 004°23'0 0.0
2017-Sep-16 13:58N 51°15' E 004°23'0 0.0
2017-Sep-16 13:28N 51°15' E 004°23'0 0.0
2017-Sep-16 12:58N 51°15' E 004°23'0 0.0
2017-Sep-16 12:28N 51°15' E 004°23'0 0.0
2017-Sep-16 11:58N 51°15' E 004°23'0 0.0
2017-Sep-16 11:28N 51°15' E 004°23'0 0.0
2017-Sep-16 10:58N 51°15' E 004°23'0 0.0
2017-Sep-16 10:28N 51°15' E 004°23'0 0.0
2017-Sep-16 09:58N 51°15' E 004°23'0 0.0
2017-Sep-16 09:28N 51°15' E 004°23'0 0.0
2017-Sep-16 08:58N 51°15' E 004°23'0 0.0
2017-Sep-16 08:28N 51°15' E 004°23'0 0.0
2017-Sep-16 07:58N 51°15' E 004°23'0 0.0
2017-Sep-16 07:28N 51°15' E 004°23'0 0.0
2017-Sep-16 06:58N 51°15' E 004°23'0 0.0
2017-Sep-16 06:28N 51°15' E 004°23'0 0.0
2017-Sep-16 05:58N 51°15' E 004°23'0 0.0
2017-Sep-16 05:28N 51°15' E 004°23'0 0.0
2017-Sep-16 04:58N 51°15' E 004°23'0 0.0
2017-Sep-16 04:28N 51°15' E 004°23'0 0.0
2017-Sep-16 03:58N 51°15' E 004°23'0 0.0
2017-Sep-16 03:28N 51°15' E 004°23'0 0.0
2017-Sep-16 02:58N 51°15' E 004°23'0 0.0
2017-Sep-16 02:28N 51°15' E 004°23'0 0.0
2017-Sep-16 01:58N 51°15' E 004°23'0 0.0
2017-Sep-16 01:28N 51°15' E 004°23'0 0.0
2017-Sep-16 00:58N 51°15' E 004°23'0 0.0
2017-Sep-16 00:28N 51°15' E 004°23'0 0.0
2017-Sep-15 23:58N 51°15' E 004°23'0 0.0
2017-Sep-15 23:28N 51°15' E 004°23'0 0.0
2017-Sep-15 22:58N 51°15' E 004°23'0 0.0
2017-Sep-15 22:28N 51°15' E 004°23'0 0.0
2017-Sep-15 21:55N 51°15' E 004°23'0 0.0
2017-Sep-15 21:28N 51°15' E 004°23'0 0.0
2017-Sep-15 20:58N 51°15' E 004°23'0 0.0
2017-Sep-15 20:28N 51°15' E 004°23'0 0.0
2017-Sep-15 19:58N 51°15' E 004°23'0 0.0
2017-Sep-15 19:28N 51°15' E 004°23'0 0.0
2017-Sep-15 18:58N 51°15' E 004°23'0 0.0
2017-Sep-15 18:28N 51°15' E 004°23'0 0.0
2017-Sep-15 17:58N 51°15' E 004°23'0 0.0
2017-Sep-15 17:28N 51°15' E 004°23'0 0.0
2017-Sep-15 16:58N 51°15' E 004°23'0 0.0
2017-Sep-15 16:28N 51°15' E 004°23'0 0.0
2017-Sep-15 15:58N 51°15' E 004°23'0 0.0
2017-Sep-15 15:28N 51°15' E 004°23'0 0.0
2017-Sep-15 14:58N 51°15' E 004°23'0 0.0
2017-Sep-15 14:28N 51°15' E 004°23'0 0.0
2017-Sep-15 13:58N 51°15' E 004°23'0 0.0
2017-Sep-15 13:28N 51°15' E 004°23'0 0.0
2017-Sep-15 12:58N 51°15' E 004°23'0 0.0
2017-Sep-15 12:28N 51°15' E 004°23'0 0.0
2017-Sep-15 11:58N 51°15' E 004°23'0 0.0
2017-Sep-15 11:28N 51°15' E 004°23'0 0.0
2017-Sep-15 10:58N 51°15' E 004°23'0 0.0
2017-Sep-15 10:28N 51°15' E 004°23'0 0.0
2017-Sep-15 09:58N 51°15' E 004°23'0 0.0
2017-Sep-15 09:28N 51°15' E 004°23'0 0.0
2017-Sep-15 08:55N 51°15' E 004°23'0 0.0
2017-Sep-15 08:28N 51°15' E 004°23'0 0.0
2017-Sep-15 07:58N 51°15' E 004°23'0 0.0
2017-Sep-15 07:25N 51°15' E 004°23'0 0.0
2017-Sep-15 06:58N 51°15' E 004°23'0 0.0
2017-Sep-15 06:28N 51°15' E 004°23'0 0.0
2017-Sep-15 05:58N 51°15' E 004°23'0 0.0
2017-Sep-15 05:28N 51°15' E 004°23'0 0.0
2017-Sep-15 04:58N 51°15' E 004°23'0 0.0
2017-Sep-15 04:28N 51°15' E 004°23'0 0.0
2017-Sep-15 03:58N 51°15' E 004°23'0 0.0
2017-Sep-15 03:28N 51°15' E 004°23'0 0.0
2017-Sep-15 02:58N 51°15' E 004°23'0 0.0
2017-Sep-15 02:28N 51°15' E 004°23'0 0.0
2017-Sep-15 01:58N 51°15' E 004°23'0 0.0
2017-Sep-15 01:28N 51°15' E 004°23'0 0.0
2017-Sep-15 00:58N 51°15' E 004°23'0 0.0
2017-Sep-15 00:28N 51°15' E 004°23'0 0.0
2017-Sep-14 23:58N 51°15' E 004°23'0 0.0
2017-Sep-14 23:28N 51°15' E 004°23'0 0.0
2017-Sep-14 22:58N 51°15' E 004°23'0 0.0
2017-Sep-14 22:28N 51°15' E 004°23'0 0.0
2017-Sep-14 21:58N 51°15' E 004°23'0 0.0
2017-Sep-14 21:28N 51°15' E 004°23'0 0.0
2017-Sep-14 20:58N 51°15' E 004°23'0 0.0
2017-Sep-14 20:28N 51°15' E 004°23'0 0.0
2017-Sep-14 19:58N 51°15' E 004°23'0 0.0
2017-Sep-14 19:28N 51°15' E 004°23'0 0.0
2017-Sep-14 18:58N 51°15' E 004°23'0 0.0
2017-Sep-14 18:28N 51°15' E 004°23'0 0.0
2017-Sep-14 17:58N 51°15' E 004°23'0 0.0
2017-Sep-14 17:25N 51°15' E 004°23'0 0.0
2017-Sep-14 16:58N 51°15' E 004°23'0 0.0
2017-Sep-14 16:28N 51°15' E 004°23'0 0.0
2017-Sep-14 15:58N 51°15' E 004°23'0 0.0
2017-Sep-14 15:28N 51°15' E 004°23'0 0.0
2017-Sep-14 14:58N 51°15' E 004°23'0 0.0
2017-Sep-14 14:28N 51°15' E 004°23'0 0.0
2017-Sep-14 13:58N 51°15' E 004°23'0 0.0
2017-Sep-14 13:28N 51°15' E 004°23'0 0.0
2017-Sep-14 12:58N 51°15' E 004°23'0 0.0
2017-Sep-14 12:28N 51°15' E 004°23'0 0.0
2017-Sep-14 11:58N 51°15' E 004°23'0 0.0
2017-Sep-14 11:28N 51°15' E 004°23'0 0.0
2017-Sep-14 10:58N 51°15' E 004°23'0 0.0
2017-Sep-14 10:28N 51°15' E 004°23'0 0.0
2017-Sep-14 09:58N 51°15' E 004°23'0 0.0
2017-Sep-14 09:28N 51°15' E 004°23'0 0.0
2017-Sep-14 08:58N 51°15' E 004°23'0 0.0
2017-Sep-14 08:28N 51°15' E 004°23'0 0.0
2017-Sep-14 07:58N 51°15' E 004°23'0 0.0
2017-Sep-14 07:28N 51°15' E 004°23'0 0.0
2017-Sep-14 06:58N 51°15' E 004°23'0 0.0
2017-Sep-14 06:28N 51°15' E 004°23'0 0.0
2017-Sep-14 05:58N 51°15' E 004°23'0 0.0
2017-Sep-14 05:28N 51°15' E 004°23'0 0.0
2017-Sep-14 04:58N 51°15' E 004°23'0 0.0
2017-Sep-14 04:28N 51°15' E 004°23'0 0.0
2017-Sep-14 03:58N 51°15' E 004°23'0 0.0
2017-Sep-14 03:28N 51°15' E 004°23'0 0.0
2017-Sep-14 02:58N 51°15' E 004°23'0 0.0
2017-Sep-14 02:28N 51°15' E 004°23'0 0.0
2017-Sep-14 01:58N 51°15' E 004°23'0 0.0
2017-Sep-14 01:28N 51°15' E 004°23'0 0.0
2017-Sep-14 00:58N 51°15' E 004°23'0 0.0
2017-Sep-14 00:28N 51°15' E 004°23'0 0.0
2017-Sep-13 23:58N 51°15' E 004°23'0 0.0
2017-Sep-13 23:28N 51°15' E 004°23'0 0.0
2017-Sep-13 22:58N 51°15' E 004°23'0 0.0
2017-Sep-13 22:28N 51°15' E 004°23'0 0.0
2017-Sep-13 21:58N 51°15' E 004°23'0 0.0
2017-Sep-13 21:28N 51°15' E 004°23'0 0.0
2017-Sep-13 20:58N 51°15' E 004°23'0 0.0
2017-Sep-13 20:28N 51°15' E 004°23'0 0.0
2017-Sep-13 19:58N 51°15' E 004°23'0 0.0
2017-Sep-13 19:28N 51°15' E 004°23'0 0.0
2017-Sep-13 18:58N 51°15' E 004°23'0 0.0
2017-Sep-13 18:28N 51°15' E 004°23'0 0.0
2017-Sep-13 17:58N 51°15' E 004°23'0 0.0
2017-Sep-13 17:28N 51°15' E 004°23'0 0.0
2017-Sep-13 16:58N 51°15' E 004°23'0 0.0
2017-Sep-13 16:28N 51°15' E 004°23'0 0.0
2017-Sep-13 15:58N 51°15' E 004°23'0 0.0
2017-Sep-13 15:28N 51°15' E 004°23'0 0.0
2017-Sep-13 14:58N 51°15' E 004°23'0 0.0
2017-Sep-13 14:28N 51°15' E 004°23'0 0.0
2017-Sep-13 13:58N 51°15' E 004°23'0 0.0
2017-Sep-13 13:28N 51°15' E 004°23'0 0.0
2017-Sep-13 12:58N 51°15' E 004°23'0 0.0
2017-Sep-13 12:28N 51°15' E 004°23'0 0.0
2017-Sep-13 11:58N 51°15' E 004°23'0 0.0
2017-Sep-13 11:28N 51°15' E 004°23'0 0.0
2017-Sep-13 10:58N 51°15' E 004°23'0 0.0
2017-Sep-13 10:28N 51°15' E 004°23'0 0.0
2017-Sep-13 09:58N 51°15' E 004°23'0 0.0
2017-Sep-13 09:28N 51°15' E 004°23'0 0.0
2017-Sep-13 08:58N 51°15' E 004°23'0 0.0
2017-Sep-13 08:28N 51°15' E 004°23'0 0.0
2017-Sep-13 07:58N 51°15' E 004°23'0 0.0
2017-Sep-13 07:28N 51°15' E 004°23'0 0.0
2017-Sep-13 06:58N 51°15' E 004°23'0 0.0
2017-Sep-13 06:28N 51°15' E 004°23'0 0.0
2017-Sep-13 05:58N 51°15' E 004°23'0 0.0
2017-Sep-13 05:28N 51°15' E 004°23'0 0.0
2017-Sep-13 04:58N 51°15' E 004°23'0 0.0
2017-Sep-13 04:28N 51°15' E 004°23'0 0.0
2017-Sep-13 03:58N 51°15' E 004°23'0 0.0
2017-Sep-13 03:28N 51°15' E 004°23'0 0.0
2017-Sep-13 02:58N 51°15' E 004°23'0 0.0
2017-Sep-13 02:28N 51°15' E 004°23'0 0.0
2017-Sep-13 01:58N 51°15' E 004°23'0 0.0
2017-Sep-13 01:28N 51°15' E 004°23'0 0.0
2017-Sep-13 00:58N 51°15' E 004°23'0 0.0
2017-Sep-13 00:28N 51°15' E 004°23'0 0.0
2017-Sep-12 23:58N 51°15' E 004°23'0 0.0
2017-Sep-12 23:28N 51°15' E 004°23'0 0.0
2017-Sep-12 22:58N 51°15' E 004°23'0 0.0
2017-Sep-12 22:28N 51°15' E 004°23'0 0.0
2017-Sep-12 21:58N 51°15' E 004°23'0 0.0
2017-Sep-12 21:28N 51°15' E 004°23'0 0.0
2017-Sep-12 20:58N 51°15' E 004°23'0 0.0
2017-Sep-12 20:28N 51°15' E 004°23'0 0.0
2017-Sep-12 19:58N 51°15' E 004°23'0 0.0
2017-Sep-12 19:28N 51°15' E 004°23'0 0.0
2017-Sep-12 18:58N 51°15' E 004°23'0 0.0
2017-Sep-12 18:28N 51°15' E 004°23'0 0.0
2017-Sep-12 17:58N 51°15' E 004°23'0 0.0
2017-Sep-12 17:28N 51°15' E 004°23'0 0.0
2017-Sep-12 16:58N 51°15' E 004°23'0 0.0
2017-Sep-12 16:28N 51°15' E 004°23'0 0.0
2017-Sep-12 15:58N 51°15' E 004°23'0 0.0
2017-Sep-12 15:28N 51°15' E 004°23'0 0.1
2017-Sep-12 15:00N 51°15' E 004°22'2 3.7
2017-Sep-12 14:31N 51°16' E 004°20'3 5.7
2017-Sep-12 14:00N 51°19' E 004°19'2 4.0
2017-Sep-12 13:30N 51°21' E 004°17'0 0.0
2017-Sep-12 13:00N 51°21' E 004°17'0 0.0
2017-Sep-12 12:30N 51°21' E 004°17'0 0.0
2017-Sep-12 12:01N 51°21' E 004°17'1 1.2
2017-Sep-12 11:30N 51°21' E 004°16'3 6.9
2017-Sep-12 11:00N 51°23' E 004°13'510.3
2017-Sep-12 10:30N 51°22' E 004°05'5 9.9
2017-Sep-12 10:00N 51°26' E 003°60'611.2
2017-Sep-12 09:30N 51°22' E 003°54'510.1
2017-Sep-12 09:00N 51°21' E 003°46'510.6
2017-Sep-12 08:31N 51°25' E 003°40'5 9.0
2017-Sep-12 08:00N 51°27' E 003°33'5 9.9
2017-Sep-12 07:30N 51°30' E 003°28'612.1
2017-Sep-12 07:00N 51°35' E 003°23'1219.3
2017-Sep-12 06:25N 51°47' E 003°19'0 0.0
2017-Sep-12 06:00N 51°47' E 003°19'1 2.1
2017-Sep-12 05:30N 51°47' E 003°21'0 0.0
2017-Sep-12 05:00N 51°47' E 003°21'0 0.0
2017-Sep-12 04:30N 51°47' E 003°21'0 0.0
2017-Sep-12 04:00N 51°47' E 003°21'0 0.0
2017-Sep-12 03:30N 51°47' E 003°21'0 0.1
2017-Sep-12 03:00N 51°47' E 003°21'0 0.2
2017-Sep-12 02:30N 51°47' E 003°21'0 0.0
2017-Sep-12 02:00N 51°47' E 003°21'0 0.0
2017-Sep-12 01:30N 51°47' E 003°21'0 0.0
2017-Sep-12 01:00N 51°47' E 003°21'0 0.0
2017-Sep-12 00:30N 51°47' E 003°21'0 0.0
2017-Sep-12 00:00N 51°47' E 003°21'0 0.1
2017-Sep-11 23:30N 51°47' E 003°21'0 0.0
2017-Sep-11 23:00N 51°47' E 003°21'0 0.1
2017-Sep-11 22:30N 51°47' E 003°21'0 0.1
2017-Sep-11 22:00N 51°47' E 003°21'0 0.1
2017-Sep-11 21:30N 51°47' E 003°21'0 0.0
2017-Sep-11 21:00N 51°47' E 003°21'0 0.1
2017-Sep-11 20:30N 51°47' E 003°21'0 0.1
2017-Sep-11 20:00N 51°47' E 003°21'0 0.0
2017-Sep-11 19:30N 51°47' E 003°21'0 0.0
2017-Sep-11 19:00N 51°47' E 003°21'0 0.0
2017-Sep-11 18:29N 51°47' E 003°21'0 0.0
2017-Sep-11 18:00N 51°47' E 003°21'0 0.1
2017-Sep-11 17:30N 51°47' E 003°21'0 0.0
2017-Sep-11 17:00N 51°47' E 003°21'0 0.0
2017-Sep-11 16:30N 51°47' E 003°21'0 0.0
2017-Sep-11 16:00N 51°47' E 003°21'0 0.2
2017-Sep-11 15:30N 51°47' E 003°21'0 0.0
2017-Sep-11 15:00N 51°47' E 003°21'0 0.0
2017-Sep-11 14:30N 51°47' E 003°21'0 0.0
2017-Sep-11 14:00N 51°47' E 003°21'0 0.0
2017-Sep-11 13:30N 51°47' E 003°21'0 0.0
2017-Sep-11 13:00N 51°47' E 003°21'0 0.0
2017-Sep-11 12:30N 51°47' E 003°21'0 0.0
2017-Sep-11 12:00N 51°47' E 003°21'0 0.0
2017-Sep-11 11:30N 51°47' E 003°21'0 0.0
2017-Sep-11 11:00N 51°47' E 003°21'0 0.2
2017-Sep-11 10:30N 51°47' E 003°21'0 0.0
2017-Sep-11 10:00N 51°47' E 003°21'0 0.0
2017-Sep-11 09:30N 51°47' E 003°21'0 0.0
2017-Sep-11 09:00N 51°47' E 003°21'0 0.0
2017-Sep-11 08:30N 51°47' E 003°21'0 0.0
2017-Sep-11 08:00N 51°47' E 003°21'0 0.0
2017-Sep-11 04:54N 51°47' E 003°21'0 0.0
2017-Sep-10 23:08N 51°47' E 003°21'0 0.1
2017-Sep-10 22:41N 51°47' E 003°21'0 0.1
2017-Sep-10 22:29N 51°47' E 003°21'0 0.0
2017-Sep-10 21:59N 51°47' E 003°21'0 0.0
2017-Sep-10 21:29N 51°47' E 003°21'0 0.0
2017-Sep-10 20:53N 51°47' E 003°21'0 0.1
2017-Sep-10 20:29N 51°47' E 003°21'0 0.1
2017-Sep-10 19:56N 51°47' E 003°21'0 0.0
2017-Sep-10 19:29N 51°47' E 003°21'0 0.0
2017-Sep-10 18:53N 51°47' E 003°21'0 0.0
2017-Sep-10 18:30N 51°47' E 003°21'0 0.0
2017-Sep-10 17:11N 51°47' E 003°21'0 0.1
2017-Sep-10 16:59N 51°47' E 003°21'0 0.0
2017-Sep-10 15:36N 51°47' E 003°21'0 0.0
2017-Sep-10 08:14N 51°47' E 003°21'0 0.0
2017-Sep-10 07:47N 51°47' E 003°21'0 0.0
2017-Sep-10 04:12N 51°47' E 003°21'0 0.0
2017-Sep-10 03:56N 51°47' E 003°21'0 0.0
2017-Sep-10 03:08N 51°47' E 003°21'0 0.0
2017-Sep-10 01:41N 51°47' E 003°21'0 0.2
2017-Sep-10 01:05N 51°47' E 003°21'0 0.1
2017-Sep-10 00:56N 51°47' E 003°21'0 0.1
2017-Sep-10 00:21N 51°47' E 003°20'0 0.0
2017-Sep-09 23:35N 51°47' E 003°20'0 0.0
2017-Sep-09 23:23N 51°47' E 003°20'0 0.0
2017-Sep-09 22:50N 51°47' E 003°20'0 0.0
2017-Sep-09 22:29N 51°47' E 003°20'0 0.0
2017-Sep-09 21:57N 51°47' E 003°20'0 0.1
2017-Sep-09 20:32N 51°47' E 003°21'0 0.1
2017-Sep-09 20:29N 51°47' E 003°21'0 0.0
2017-Sep-09 19:06N 51°47' E 003°21'0 0.0
2017-Sep-09 18:47N 51°47' E 003°21'0 0.0
2017-Sep-09 18:29N 51°47' E 003°21'0 0.0
2017-Sep-09 07:21N 51°47' E 003°21'0 0.1
2017-Sep-09 07:00N 51°47' E 003°21'0 0.1
2017-Sep-09 06:26N 51°47' E 003°21'0 0.1
2017-Sep-09 05:54N 51°47' E 003°21'0 0.0
2017-Sep-09 05:30N 51°47' E 003°21'0 0.0
2017-Sep-09 04:47N 51°47' E 003°21'0 0.0
2017-Sep-09 04:26N 51°47' E 003°21'0 0.1
2017-Sep-09 03:50N 51°47' E 003°21'0 0.0
2017-Sep-09 02:53N 51°47' E 003°21'0 0.0
2017-Sep-09 02:26N 51°47' E 003°21'0 0.1
2017-Sep-09 01:59N 51°47' E 003°21'0 0.0
2017-Sep-09 01:29N 51°47' E 003°21'0 0.1
2017-Sep-09 00:59N 51°47' E 003°21'0 0.1
2017-Sep-09 00:23N 51°47' E 003°21'0 0.2
2017-Sep-08 23:59N 51°47' E 003°21'0 0.1
2017-Sep-08 23:29N 51°47' E 003°21'0 0.1
2017-Sep-08 22:59N 51°47' E 003°21'0 0.0
2017-Sep-08 22:23N 51°47' E 003°21'0 0.1
2017-Sep-08 21:50N 51°47' E 003°21'  
Track history (hours):
 
Tides and Currents Weather Stations Pressure Air Temp Water Temp Dewpoint Dewpoint Depression Visibility Wind Speed Wind Dir Waves Ship Positions

Thorco Reef

Last reported at 2017-Sep-18 20:50 UTC. Time now 2017-Sep-22 17:20 UTC.
Position N 49°34' W 004°03'.

Length 161 m; draft 7.1 m.

Type: Ship. MMSI: 477196900.

Date/timePositionNaut miles runAvg speedWind from/ knotsBaromVisibWave heightAir tempDewpointWater temp
2017-Sep-18 20:50N 49°34' W 004°03'514.3
2017-Sep-18 20:30N 49°37' W 003°57'713.9
2017-Sep-18 20:00N 49°40' W 003°48'713.3
2017-Sep-18 19:30N 49°43' W 003°39'612.6
2017-Sep-18 19:00N 49°46' W 003°30'612.0
2017-Sep-18 18:30N 49°49' W 003°22'611.6
2017-Sep-18 18:00N 49°52' W 003°15'611.5
2017-Sep-18 17:30N 49°55' W 003°07'611.5
2017-Sep-18 17:00N 49°58' W 002°59'611.4
2017-Sep-18 16:30N 49°59' W 002°50'612.0
2017-Sep-18 16:01N 50°01' W 002°41'3314.1
2017-Sep-18 13:39N 50°10' W 001°51'216.0
2017-Sep-18 13:30N 50°10' W 001°48'816.4
2017-Sep-18 13:01N 50°13' W 001°36'816.4
2017-Sep-18 12:30N 50°15' W 001°23'3615.3
2017-Sep-18 10:07N 50°25' W 000°28'213.9
2017-Sep-18 10:00N 50°25' W 000°26'713.5
2017-Sep-18 09:30N 50°27' W 000°16'713.0
2017-Sep-18 09:00N 50°29' W 000°06'612.5
2017-Sep-18 08:30N 50°31' E 000°04'612.1
2017-Sep-18 08:00N 50°32' E 000°13'611.8
2017-Sep-18 07:30N 50°34' E 000°22'611.8
2017-Sep-18 07:00N 50°36' E 000°31'612.2
2017-Sep-18 06:30N 50°38' E 000°39'713.1
2017-Sep-18 06:00N 50°42' E 000°48'714.1
2017-Sep-18 05:30N 50°46' E 000°57'714.9
2017-Sep-18 05:00N 50°50' E 001°07'1115.5
2017-Sep-18 04:17N 50°57' E 001°20'416.0
2017-Sep-18 04:01N 51°00' E 001°25'815.2
2017-Sep-18 03:30N 51°06' E 001°34'714.6
2017-Sep-18 03:00N 51°11' E 001°42'713.9
2017-Sep-18 02:30N 51°16' E 001°50'713.3
2017-Sep-18 02:00N 51°22' E 001°56'611.1
2017-Sep-18 01:30N 51°25' E 002°03'612.8
2017-Sep-18 01:00N 51°22' E 002°12'611.9
2017-Sep-18 00:30N 51°21' E 002°22'611.9
2017-Sep-18 00:00N 51°23' E 002°31'611.7
2017-Sep-17 23:30N 51°23' E 002°40'510.8
2017-Sep-17 23:01N 51°22' E 002°49'612.6
2017-Sep-17 22:30N 51°23' E 002°59'612.6
2017-Sep-17 22:00N 51°24' E 003°09'611.8
2017-Sep-17 21:30N 51°25' E 003°18'612.0
2017-Sep-17 21:00N 51°25' E 003°28'510.5
2017-Sep-17 20:30N 51°26' E 003°36'4 8.7
2017-Sep-17 20:01N 51°25' E 003°43'612.2
2017-Sep-17 19:31N 51°21' E 003°50'612.5
2017-Sep-17 19:01N 51°25' E 003°58'4 8.6
2017-Sep-17 18:31N 51°22' E 004°03'611.8
2017-Sep-17 18:00N 51°23' E 004°13'3 6.6
2017-Sep-17 17:30N 51°21' E 004°17'0 0.0
2017-Sep-17 17:00N 51°21' E 004°17'1 1.5
2017-Sep-17 16:30N 51°20' E 004°18'3 6.6
2017-Sep-17 16:00N 51°17' E 004°20'3 5.3
2017-Sep-17 15:30N 51°15' E 004°23'0 0.1
2017-Sep-17 14:58N 51°15' E 004°23'0 0.0
2017-Sep-17 14:28N 51°15' E 004°23'0 0.0
2017-Sep-17 13:58N 51°15' E 004°23'0 0.0
2017-Sep-17 13:28N 51°15' E 004°23'0 0.0
2017-Sep-17 12:58N 51°15' E 004°23'0 0.0
2017-Sep-17 12:28N 51°15' E 004°23'0 0.0
2017-Sep-17 11:58N 51°15' E 004°23'0 0.0
2017-Sep-17 11:28N 51°15' E 004°23'0 0.0
2017-Sep-17 10:58N 51°15' E 004°23'0 0.0
2017-Sep-17 10:28N 51°15' E 004°23'0 0.0
2017-Sep-17 09:58N 51°15' E 004°23'0 0.0
2017-Sep-17 09:28N 51°15' E 004°23'0 0.0
2017-Sep-17 08:58N 51°15' E 004°23'0 0.0
2017-Sep-17 08:28N 51°15' E 004°23'0 0.0
2017-Sep-17 07:58N 51°15' E 004°23'0 0.0
2017-Sep-17 07:28N 51°15' E 004°23'0 0.0
2017-Sep-17 06:58N 51°15' E 004°23'0 0.0
2017-Sep-17 06:28N 51°15' E 004°23'0 0.0
2017-Sep-17 05:58N 51°15' E 004°23'0 0.0
2017-Sep-17 05:28N 51°15' E 004°23'0 0.0
2017-Sep-17 04:58N 51°15' E 004°23'0 0.0
2017-Sep-17 04:28N 51°15' E 004°23'0 0.0
2017-Sep-17 03:58N 51°15' E 004°23'0 0.0
2017-Sep-17 03:28N 51°15' E 004°23'0 0.0
2017-Sep-17 02:58N 51°15' E 004°23'0 0.0
2017-Sep-17 02:28N 51°15' E 004°23'0 0.0
2017-Sep-17 01:58N 51°15' E 004°23'0 0.0
2017-Sep-17 01:28N 51°15' E 004°23'0 0.0
2017-Sep-17 00:58N 51°15' E 004°23'0 0.0
2017-Sep-17 00:28N 51°15' E 004°23'0 0.0
2017-Sep-16 23:58N 51°15' E 004°23'0 0.0
2017-Sep-16 23:28N 51°15' E 004°23'0 0.0
2017-Sep-16 22:58N 51°15' E 004°23'0 0.0
2017-Sep-16 22:28N 51°15' E 004°23'0 0.0
2017-Sep-16 21:58N 51°15' E 004°23'0 0.0
2017-Sep-16 21:28N 51°15' E 004°23'0 0.0
2017-Sep-16 20:58N 51°15' E 004°23'0 0.0
2017-Sep-16 20:28N 51°15' E 004°23'0 0.0
2017-Sep-16 19:58N 51°15' E 004°23'0 0.0
2017-Sep-16 19:28N 51°15' E 004°23'0 0.0
2017-Sep-16 18:58N 51°15' E 004°23'0 0.0
2017-Sep-16 18:28N 51°15' E 004°23'0 0.0
2017-Sep-16 17:58N 51°15' E 004°23'0 0.0
2017-Sep-16 17:28N 51°15' E 004°23'0 0.0
2017-Sep-16 16:58N 51°15' E 004°23'0 0.0
2017-Sep-16 16:28N 51°15' E 004°23'0 0.0
2017-Sep-16 15:58N 51°15' E 004°23'0 0.0
2017-Sep-16 15:28N 51°15' E 004°23'0 0.0
2017-Sep-16 14:58N 51°15' E 004°23'0 0.0
2017-Sep-16 14:25N 51°15' E 004°23'0 0.0
2017-Sep-16 13:58N 51°15' E 004°23'0 0.0
2017-Sep-16 13:28N 51°15' E 004°23'0 0.0
2017-Sep-16 12:58N 51°15' E 004°23'0 0.0
2017-Sep-16 12:28N 51°15' E 004°23'0 0.0
2017-Sep-16 11:58N 51°15' E 004°23'0 0.0
2017-Sep-16 11:28N 51°15' E 004°23'0 0.0
2017-Sep-16 10:58N 51°15' E 004°23'0 0.0
2017-Sep-16 10:28N 51°15' E 004°23'0 0.0
2017-Sep-16 09:58N 51°15' E 004°23'0 0.0
2017-Sep-16 09:28N 51°15' E 004°23'0 0.0
2017-Sep-16 08:58N 51°15' E 004°23'0 0.0
2017-Sep-16 08:28N 51°15' E 004°23'0 0.0
2017-Sep-16 07:58N 51°15' E 004°23'0 0.0
2017-Sep-16 07:28N 51°15' E 004°23'0 0.0
2017-Sep-16 06:58N 51°15' E 004°23'0 0.0
2017-Sep-16 06:28N 51°15' E 004°23'0 0.0
2017-Sep-16 05:58N 51°15' E 004°23'0 0.0
2017-Sep-16 05:28N 51°15' E 004°23'0 0.0
2017-Sep-16 04:58N 51°15' E 004°23'0 0.0
2017-Sep-16 04:28N 51°15' E 004°23'0 0.0
2017-Sep-16 03:58N 51°15' E 004°23'0 0.0
2017-Sep-16 03:28N 51°15' E 004°23'0 0.0
2017-Sep-16 02:58N 51°15' E 004°23'0 0.0
2017-Sep-16 02:28N 51°15' E 004°23'0 0.0
2017-Sep-16 01:58N 51°15' E 004°23'0 0.0
2017-Sep-16 01:28N 51°15' E 004°23'0 0.0
2017-Sep-16 00:58N 51°15' E 004°23'0 0.0
2017-Sep-16 00:28N 51°15' E 004°23'0 0.0
2017-Sep-15 23:58N 51°15' E 004°23'0 0.0
2017-Sep-15 23:28N 51°15' E 004°23'0 0.0
2017-Sep-15 22:58N 51°15' E 004°23'0 0.0
2017-Sep-15 22:28N 51°15' E 004°23'0 0.0
2017-Sep-15 21:55N 51°15' E 004°23'0 0.0
2017-Sep-15 21:28N 51°15' E 004°23'0 0.0
2017-Sep-15 20:58N 51°15' E 004°23'0 0.0
2017-Sep-15 20:28N 51°15' E 004°23'0 0.0
2017-Sep-15 19:58N 51°15' E 004°23'0 0.0
2017-Sep-15 19:28N 51°15' E 004°23'0 0.0
2017-Sep-15 18:58N 51°15' E 004°23'0 0.0
2017-Sep-15 18:28N 51°15' E 004°23'0 0.0
2017-Sep-15 17:58N 51°15' E 004°23'0 0.0
2017-Sep-15 17:28N 51°15' E 004°23'0 0.0
2017-Sep-15 16:58N 51°15' E 004°23'0 0.0
2017-Sep-15 16:28N 51°15' E 004°23'0 0.0
2017-Sep-15 15:58N 51°15' E 004°23'0 0.0
2017-Sep-15 15:28N 51°15' E 004°23'0 0.0
2017-Sep-15 14:58N 51°15' E 004°23'0 0.0
2017-Sep-15 14:28N 51°15' E 004°23'0 0.0
2017-Sep-15 13:58N 51°15' E 004°23'0 0.0
2017-Sep-15 13:28N 51°15' E 004°23'0 0.0
2017-Sep-15 12:58N 51°15' E 004°23'0 0.0
2017-Sep-15 12:28N 51°15' E 004°23'0 0.0
2017-Sep-15 11:58N 51°15' E 004°23'0 0.0
2017-Sep-15 11:28N 51°15' E 004°23'0 0.0
2017-Sep-15 10:58N 51°15' E 004°23'0 0.0
2017-Sep-15 10:28N 51°15' E 004°23'0 0.0
2017-Sep-15 09:58N 51°15' E 004°23'0 0.0
2017-Sep-15 09:28N 51°15' E 004°23'0 0.0
2017-Sep-15 08:55N 51°15' E 004°23'0 0.0
2017-Sep-15 08:28N 51°15' E 004°23'0 0.0
2017-Sep-15 07:58N 51°15' E 004°23'0 0.0
2017-Sep-15 07:25N 51°15' E 004°23'0 0.0
2017-Sep-15 06:58N 51°15' E 004°23'0 0.0
2017-Sep-15 06:28N 51°15' E 004°23'0 0.0
2017-Sep-15 05:58N 51°15' E 004°23'0 0.0
2017-Sep-15 05:28N 51°15' E 004°23'0 0.0
2017-Sep-15 04:58N 51°15' E 004°23'0 0.0
2017-Sep-15 04:28N 51°15' E 004°23'0 0.0
2017-Sep-15 03:58N 51°15' E 004°23'0 0.0
2017-Sep-15 03:28N 51°15' E 004°23'0 0.0
2017-Sep-15 02:58N 51°15' E 004°23'0 0.0
2017-Sep-15 02:28N 51°15' E 004°23'0 0.0
2017-Sep-15 01:58N 51°15' E 004°23'0 0.0
2017-Sep-15 01:28N 51°15' E 004°23'0 0.0
2017-Sep-15 00:58N 51°15' E 004°23'0 0.0
2017-Sep-15 00:28N 51°15' E 004°23'0 0.0
2017-Sep-14 23:58N 51°15' E 004°23'0 0.0
2017-Sep-14 23:28N 51°15' E 004°23'0 0.0
2017-Sep-14 22:58N 51°15' E 004°23'0 0.0
2017-Sep-14 22:28N 51°15' E 004°23'0 0.0
2017-Sep-14 21:58N 51°15' E 004°23'0 0.0
2017-Sep-14 21:28N 51°15' E 004°23'0 0.0
2017-Sep-14 20:58N 51°15' E 004°23'0 0.0
2017-Sep-14 20:28N 51°15' E 004°23'0 0.0
2017-Sep-14 19:58N 51°15' E 004°23'0 0.0
2017-Sep-14 19:28N 51°15' E 004°23'0 0.0
2017-Sep-14 18:58N 51°15' E 004°23'0 0.0
2017-Sep-14 18:28N 51°15' E 004°23'0 0.0
2017-Sep-14 17:58N 51°15' E 004°23'0 0.0
2017-Sep-14 17:25N 51°15' E 004°23'0 0.0
2017-Sep-14 16:58N 51°15' E 004°23'0 0.0
2017-Sep-14 16:28N 51°15' E 004°23'0 0.0
2017-Sep-14 15:58N 51°15' E 004°23'0 0.0
2017-Sep-14 15:28N 51°15' E 004°23'0 0.0
2017-Sep-14 14:58N 51°15' E 004°23'0 0.0
2017-Sep-14 14:28N 51°15' E 004°23'0 0.0
2017-Sep-14 13:58N 51°15' E 004°23'0 0.0
2017-Sep-14 13:28N 51°15' E 004°23'0 0.0
2017-Sep-14 12:58N 51°15' E 004°23'0 0.0
2017-Sep-14 12:28N 51°15' E 004°23'0 0.0
2017-Sep-14 11:58N 51°15' E 004°23'0 0.0
2017-Sep-14 11:28N 51°15' E 004°23'0 0.0
2017-Sep-14 10:58N 51°15' E 004°23'0 0.0
2017-Sep-14 10:28N 51°15' E 004°23'0 0.0
2017-Sep-14 09:58N 51°15' E 004°23'0 0.0
2017-Sep-14 09:28N 51°15' E 004°23'0 0.0
2017-Sep-14 08:58N 51°15' E 004°23'0 0.0
2017-Sep-14 08:28N 51°15' E 004°23'0 0.0
2017-Sep-14 07:58N 51°15' E 004°23'0 0.0
2017-Sep-14 07:28N 51°15' E 004°23'0 0.0
2017-Sep-14 06:58N 51°15' E 004°23'0 0.0
2017-Sep-14 06:28N 51°15' E 004°23'0 0.0
2017-Sep-14 05:58N 51°15' E 004°23'0 0.0
2017-Sep-14 05:28N 51°15' E 004°23'0 0.0
2017-Sep-14 04:58N 51°15' E 004°23'0 0.0
2017-Sep-14 04:28N 51°15' E 004°23'0 0.0
2017-Sep-14 03:58N 51°15' E 004°23'0 0.0
2017-Sep-14 03:28N 51°15' E 004°23'0 0.0
2017-Sep-14 02:58N 51°15' E 004°23'0 0.0
2017-Sep-14 02:28N 51°15' E 004°23'0 0.0
2017-Sep-14 01:58N 51°15' E 004°23'0 0.0
2017-Sep-14 01:28N 51°15' E 004°23'0 0.0
2017-Sep-14 00:58N 51°15' E 004°23'0 0.0
2017-Sep-14 00:28N 51°15' E 004°23'0 0.0
2017-Sep-13 23:58N 51°15' E 004°23'0 0.0
2017-Sep-13 23:28N 51°15' E 004°23'0 0.0
2017-Sep-13 22:58N 51°15' E 004°23'0 0.0
2017-Sep-13 22:28N 51°15' E 004°23'0 0.0
2017-Sep-13 21:58N 51°15' E 004°23'0 0.0
2017-Sep-13 21:28N 51°15' E 004°23'0 0.0
2017-Sep-13 20:58N 51°15' E 004°23'0 0.0
2017-Sep-13 20:28N 51°15' E 004°23'0 0.0
2017-Sep-13 19:58N 51°15' E 004°23'0 0.0
2017-Sep-13 19:28N 51°15' E 004°23'0 0.0
2017-Sep-13 18:58N 51°15' E 004°23'0 0.0
2017-Sep-13 18:28N 51°15' E 004°23'0 0.0
2017-Sep-13 17:58N 51°15' E 004°23'0 0.0
2017-Sep-13 17:28N 51°15' E 004°23'0 0.0
2017-Sep-13 16:58N 51°15' E 004°23'0 0.0
2017-Sep-13 16:28N 51°15' E 004°23'0 0.0
2017-Sep-13 15:58N 51°15' E 004°23'0 0.0
2017-Sep-13 15:28N 51°15' E 004°23'0 0.0
2017-Sep-13 14:58N 51°15' E 004°23'0 0.0
2017-Sep-13 14:28N 51°15' E 004°23'0 0.0
2017-Sep-13 13:58N 51°15' E 004°23'0 0.0
2017-Sep-13 13:28N 51°15' E 004°23'0 0.0
2017-Sep-13 12:58N 51°15' E 004°23'0 0.0
2017-Sep-13 12:28N 51°15' E 004°23'0 0.0
2017-Sep-13 11:58N 51°15' E 004°23'0 0.0
2017-Sep-13 11:28N 51°15' E 004°23'0 0.0
2017-Sep-13 10:58N 51°15' E 004°23'0 0.0
2017-Sep-13 10:28N 51°15' E 004°23'0 0.0
2017-Sep-13 09:58N 51°15' E 004°23'0 0.0
2017-Sep-13 09:28N 51°15' E 004°23'0 0.0
2017-Sep-13 08:58N 51°15' E 004°23'0 0.0
2017-Sep-13 08:28N 51°15' E 004°23'0 0.0
2017-Sep-13 07:58N 51°15' E 004°23'0 0.0
2017-Sep-13 07:28N 51°15' E 004°23'0 0.0
2017-Sep-13 06:58N 51°15' E 004°23'0 0.0
2017-Sep-13 06:28N 51°15' E 004°23'0 0.0
2017-Sep-13 05:58N 51°15' E 004°23'0 0.0
2017-Sep-13 05:28N 51°15' E 004°23'0 0.0
2017-Sep-13 04:58N 51°15' E 004°23'0 0.0
2017-Sep-13 04:28N 51°15' E 004°23'0 0.0
2017-Sep-13 03:58N 51°15' E 004°23'0 0.0
2017-Sep-13 03:28N 51°15' E 004°23'0 0.0
2017-Sep-13 02:58N 51°15' E 004°23'0 0.0
2017-Sep-13 02:28N 51°15' E 004°23'0 0.0
2017-Sep-13 01:58N 51°15' E 004°23'0 0.0
2017-Sep-13 01:28N 51°15' E 004°23'0 0.0
2017-Sep-13 00:58N 51°15' E 004°23'0 0.0
2017-Sep-13 00:28N 51°15' E 004°23'0 0.0
2017-Sep-12 23:58N 51°15' E 004°23'0 0.0
2017-Sep-12 23:28N 51°15' E 004°23'0 0.0
2017-Sep-12 22:58N 51°15' E 004°23'0 0.0
2017-Sep-12 22:28N 51°15' E 004°23'0 0.0
2017-Sep-12 21:58N 51°15' E 004°23'0 0.0
2017-Sep-12 21:28N 51°15' E 004°23'0 0.0
2017-Sep-12 20:58N 51°15' E 004°23'0 0.0
2017-Sep-12 20:28N 51°15' E 004°23'0 0.0
2017-Sep-12 19:58N 51°15' E 004°23'0 0.0
2017-Sep-12 19:28N 51°15' E 004°23'0 0.0
2017-Sep-12 18:58N 51°15' E 004°23'0 0.0
2017-Sep-12 18:28N 51°15' E 004°23'0 0.0
2017-Sep-12 17:58N 51°15' E 004°23'0 0.0
2017-Sep-12 17:28N 51°15' E 004°23'0 0.0
2017-Sep-12 16:58N 51°15' E 004°23'0 0.0
2017-Sep-12 16:28N 51°15' E 004°23'0 0.0
2017-Sep-12 15:58N 51°15' E 004°23'0 0.0
2017-Sep-12 15:28N 51°15' E 004°23'0 0.1
2017-Sep-12 15:00N 51°15' E 004°22'2 3.7
2017-Sep-12 14:31N 51°16' E 004°20'3 5.7
2017-Sep-12 14:00N 51°19' E 004°19'2 4.0
2017-Sep-12 13:30N 51°21' E 004°17'0 0.0
2017-Sep-12 13:00N 51°21' E 004°17'0 0.0
2017-Sep-12 12:30N 51°21' E 004°17'0 0.0
2017-Sep-12 12:01N 51°21' E 004°17'1 1.2
2017-Sep-12 11:30N 51°21' E 004°16'3 6.9
2017-Sep-12 11:00N 51°23' E 004°13'510.3
2017-Sep-12 10:30N 51°22' E 004°05'5 9.9
2017-Sep-12 10:00N 51°26' E 003°60'611.2
2017-Sep-12 09:30N 51°22' E 003°54'510.1
2017-Sep-12 09:00N 51°21' E 003°46'510.6
2017-Sep-12 08:31N 51°25' E 003°40'5 9.0
2017-Sep-12 08:00N 51°27' E 003°33'5 9.9
2017-Sep-12 07:30N 51°30' E 003°28'612.1
2017-Sep-12 07:00N 51°35' E 003°23'1219.3
2017-Sep-12 06:25N 51°47' E 003°19'0 0.0
2017-Sep-12 06:00N 51°47' E 003°19'1 2.1
2017-Sep-12 05:30N 51°47' E 003°21'0 0.0
2017-Sep-12 05:00N 51°47' E 003°21'0 0.0
2017-Sep-12 04:30N 51°47' E 003°21'0 0.0
2017-Sep-12 04:00N 51°47' E 003°21'0 0.0
2017-Sep-12 03:30N 51°47' E 003°21'0 0.1
2017-Sep-12 03:00N 51°47' E 003°21'0 0.2
2017-Sep-12 02:30N 51°47' E 003°21'0 0.0
2017-Sep-12 02:00N 51°47' E 003°21'0 0.0
2017-Sep-12 01:30N 51°47' E 003°21'0 0.0
2017-Sep-12 01:00N 51°47' E 003°21'0 0.0
2017-Sep-12 00:30N 51°47' E 003°21'0 0.0
2017-Sep-12 00:00N 51°47' E 003°21'0 0.1
2017-Sep-11 23:30N 51°47' E 003°21'0 0.0
2017-Sep-11 23:00N 51°47' E 003°21'0 0.1
2017-Sep-11 22:30N 51°47' E 003°21'0 0.1
2017-Sep-11 22:00N 51°47' E 003°21'0 0.1
2017-Sep-11 21:30N 51°47' E 003°21'0 0.0
2017-Sep-11 21:00N 51°47' E 003°21'0 0.1
2017-Sep-11 20:30N 51°47' E 003°21'0 0.1
2017-Sep-11 20:00N 51°47' E 003°21'0 0.0
2017-Sep-11 19:30N 51°47' E 003°21'0 0.0
2017-Sep-11 19:00N 51°47' E 003°21'0 0.0
2017-Sep-11 18:29N 51°47' E 003°21'0 0.0
2017-Sep-11 18:00N 51°47' E 003°21'0 0.1
2017-Sep-11 17:30N 51°47' E 003°21'0 0.0
2017-Sep-11 17:00N 51°47' E 003°21'0 0.0
2017-Sep-11 16:30N 51°47' E 003°21'0 0.0
2017-Sep-11 16:00N 51°47' E 003°21'0 0.2
2017-Sep-11 15:30N 51°47' E 003°21'0 0.0
2017-Sep-11 15:00N 51°47' E 003°21'0 0.0
2017-Sep-11 14:30N 51°47' E 003°21'0 0.0
2017-Sep-11 14:00N 51°47' E 003°21'0 0.0
2017-Sep-11 13:30N 51°47' E 003°21'0 0.0
2017-Sep-11 13:00N 51°47' E 003°21'0 0.0
2017-Sep-11 12:30N 51°47' E 003°21'0 0.0
2017-Sep-11 12:00N 51°47' E 003°21'0 0.0
2017-Sep-11 11:30N 51°47' E 003°21'0 0.0
2017-Sep-11 11:00N 51°47' E 003°21'0 0.2
2017-Sep-11 10:30N 51°47' E 003°21'0 0.0
2017-Sep-11 10:00N 51°47' E 003°21'0 0.0
2017-Sep-11 09:30N 51°47' E 003°21'0 0.0
2017-Sep-11 09:00N 51°47' E 003°21'0 0.0
2017-Sep-11 08:30N 51°47' E 003°21'0 0.0
2017-Sep-11 08:00N 51°47' E 003°21'0 0.0
2017-Sep-11 04:54N 51°47' E 003°21'0 0.0
2017-Sep-10 23:08N 51°47' E 003°21'0 0.1
2017-Sep-10 22:41N 51°47' E 003°21'0 0.1
2017-Sep-10 22:29N 51°47' E 003°21'0 0.0
2017-Sep-10 21:59N 51°47' E 003°21'0 0.0
2017-Sep-10 21:29N 51°47' E 003°21'0 0.0
2017-Sep-10 20:53N 51°47' E 003°21'0 0.1
2017-Sep-10 20:29N 51°47' E 003°21'0 0.1
2017-Sep-10 19:56N 51°47' E 003°21'0 0.0
2017-Sep-10 19:29N 51°47' E 003°21'0 0.0
2017-Sep-10 18:53N 51°47' E 003°21'0 0.0
2017-Sep-10 18:30N 51°47' E 003°21'0 0.0
2017-Sep-10 17:11N 51°47' E 003°21'0 0.1
2017-Sep-10 16:59N 51°47' E 003°21'0 0.0
2017-Sep-10 15:36N 51°47' E 003°21'0 0.0
2017-Sep-10 08:14N 51°47' E 003°21'0 0.0
2017-Sep-10 07:47N 51°47' E 003°21'0 0.0
2017-Sep-10 04:12N 51°47' E 003°21'0 0.0
2017-Sep-10 03:56N 51°47' E 003°21'0 0.0
2017-Sep-10 03:08N 51°47' E 003°21'0 0.0
2017-Sep-10 01:41N 51°47' E 003°21'0 0.2
2017-Sep-10 01:05N 51°47' E 003°21'0 0.1
2017-Sep-10 00:56N 51°47' E 003°21'0 0.1
2017-Sep-10 00:21N 51°47' E 003°20'0 0.0
2017-Sep-09 23:35N 51°47' E 003°20'0 0.0
2017-Sep-09 23:23N 51°47' E 003°20'0 0.0
2017-Sep-09 22:50N 51°47' E 003°20'0 0.0
2017-Sep-09 22:29N 51°47' E 003°20'0 0.0
2017-Sep-09 21:57N 51°47' E 003°20'0 0.1
2017-Sep-09 20:32N 51°47' E 003°21'0 0.1
2017-Sep-09 20:29N 51°47' E 003°21'0 0.0
2017-Sep-09 19:06N 51°47' E 003°21'0 0.0
2017-Sep-09 18:47N 51°47' E 003°21'0 0.0
2017-Sep-09 18:29N 51°47' E 003°21'0 0.0
2017-Sep-09 07:21N 51°47' E 003°21'0 0.1
2017-Sep-09 07:00N 51°47' E 003°21'0 0.1
2017-Sep-09 06:26N 51°47' E 003°21'0 0.1
2017-Sep-09 05:54N 51°47' E 003°21'0 0.0
2017-Sep-09 05:30N 51°47' E 003°21'0 0.0
2017-Sep-09 04:47N 51°47' E 003°21'0 0.0
2017-Sep-09 04:26N 51°47' E 003°21'0 0.1
2017-Sep-09 03:50N 51°47' E 003°21'0 0.0
2017-Sep-09 02:53N 51°47' E 003°21'0 0.0
2017-Sep-09 02:26N 51°47' E 003°21'0 0.1
2017-Sep-09 01:59N 51°47' E 003°21'0 0.0
2017-Sep-09 01:29N 51°47' E 003°21'0 0.1
2017-Sep-09 00:59N 51°47' E 003°21'0 0.1
2017-Sep-09 00:23N 51°47' E 003°21'0 0.2
2017-Sep-08 23:59N 51°47' E 003°21'0 0.1
2017-Sep-08 23:29N 51°47' E 003°21'0 0.1
2017-Sep-08 22:59N 51°47' E 003°21'0 0.0
2017-Sep-08 22:23N 51°47' E 003°21'0 0.1
2017-Sep-08 21:50N 51°47' E 003°21'  

Dump ship's entire track history